sensor_id;sensor_type;location;lat;lon;timestamp;P1;durP1;ratioP1;P2;durP2;ratioP2
6442;SDS011;3254;47.372;8.512;2022-09-09T00:02:26;2.03;;;1.80;;
6442;SDS011;3254;47.372;8.512;2022-09-09T00:04:58;3.47;;;2.70;;
6442;SDS011;3254;47.372;8.512;2022-09-09T00:07:27;3.60;;;2.60;;
6442;SDS011;3254;47.372;8.512;2022-09-09T00:15:31;3.87;;;2.50;;
6442;SDS011;3254;47.372;8.512;2022-09-09T00:18:07;4.30;;;2.60;;
6442;SDS011;3254;47.372;8.512;2022-09-09T00:23:14;4.63;;;2.83;;
6442;SDS011;3254;47.372;8.512;2022-09-09T00:28:28;2.47;;;2.33;;
6442;SDS011;3254;47.372;8.512;2022-09-09T00:31:08;7.10;;;3.03;;
6442;SDS011;3254;47.372;8.512;2022-09-09T00:33:37;2.23;;;2.13;;
6442;SDS011;3254;47.372;8.512;2022-09-09T00:36:05;4.57;;;2.63;;
6442;SDS011;3254;47.372;8.512;2022-09-09T00:38:40;6.60;;;3.10;;
6442;SDS011;3254;47.372;8.512;2022-09-09T00:44:03;14.60;;;3.00;;
6442;SDS011;3254;47.372;8.512;2022-09-09T00:52:39;3.90;;;3.00;;
6442;SDS011;3254;47.372;8.512;2022-09-09T00:55:16;8.70;;;2.70;;
6442;SDS011;3254;47.372;8.512;2022-09-09T00:58:01;6.83;;;3.50;;
6442;SDS011;3254;47.372;8.512;2022-09-09T01:00:29;4.90;;;3.17;;
6442;SDS011;3254;47.372;8.512;2022-09-09T01:11:25;4.77;;;2.70;;
6442;SDS011;3254;47.372;8.512;2022-09-09T01:14:40;4.50;;;2.67;;
6442;SDS011;3254;47.372;8.512;2022-09-09T01:16:50;4.33;;;2.77;;
6442;SDS011;3254;47.372;8.512;2022-09-09T01:19:24;6.37;;;3.23;;
6442;SDS011;3254;47.372;8.512;2022-09-09T01:22:03;4.70;;;2.60;;
6442;SDS011;3254;47.372;8.512;2022-09-09T01:25:01;5.23;;;2.97;;
6442;SDS011;3254;47.372;8.512;2022-09-09T01:27:43;3.13;;;2.93;;
6442;SDS011;3254;47.372;8.512;2022-09-09T01:30:12;7.03;;;3.10;;
6442;SDS011;3254;47.372;8.512;2022-09-09T01:32:42;4.60;;;2.67;;
6442;SDS011;3254;47.372;8.512;2022-09-09T01:35:26;4.70;;;3.03;;
6442;SDS011;3254;47.372;8.512;2022-09-09T01:38:11;6.33;;;2.80;;
6442;SDS011;3254;47.372;8.512;2022-09-09T01:40:38;3.60;;;2.43;;
6442;SDS011;3254;47.372;8.512;2022-09-09T01:43:04;5.60;;;3.20;;
6442;SDS011;3254;47.372;8.512;2022-09-09T01:45:31;11.20;;;3.40;;
6442;SDS011;3254;47.372;8.512;2022-09-09T01:47:57;3.40;;;3.10;;
6442;SDS011;3254;47.372;8.512;2022-09-09T01:50:24;7.13;;;2.43;;
6442;SDS011;3254;47.372;8.512;2022-09-09T01:52:51;6.90;;;2.97;;
6442;SDS011;3254;47.372;8.512;2022-09-09T01:55:23;4.47;;;2.80;;
6442;SDS011;3254;47.372;8.512;2022-09-09T02:01:12;5.47;;;2.43;;
6442;SDS011;3254;47.372;8.512;2022-09-09T02:03:44;9.90;;;2.87;;
6442;SDS011;3254;47.372;8.512;2022-09-09T02:06:23;5.10;;;2.90;;
6442;SDS011;3254;47.372;8.512;2022-09-09T02:08:59;5.73;;;2.53;;
6442;SDS011;3254;47.372;8.512;2022-09-09T02:11:29;8.30;;;2.53;;
6442;SDS011;3254;47.372;8.512;2022-09-09T02:14:29;5.80;;;2.73;;
6442;SDS011;3254;47.372;8.512;2022-09-09T02:16:50;8.37;;;2.83;;
6442;SDS011;3254;47.372;8.512;2022-09-09T02:21:52;8.90;;;2.90;;
6442;SDS011;3254;47.372;8.512;2022-09-09T02:24:20;3.67;;;2.60;;
6442;SDS011;3254;47.372;8.512;2022-09-09T02:26:47;3.23;;;2.73;;
6442;SDS011;3254;47.372;8.512;2022-09-09T02:29:22;4.20;;;2.13;;
6442;SDS011;3254;47.372;8.512;2022-09-09T02:31:51;3.50;;;2.57;;
6442;SDS011;3254;47.372;8.512;2022-09-09T02:34:20;5.57;;;2.17;;
6442;SDS011;3254;47.372;8.512;2022-09-09T02:36:48;11.53;;;3.00;;
6442;SDS011;3254;47.372;8.512;2022-09-09T02:39:15;7.10;;;2.67;;
6442;SDS011;3254;47.372;8.512;2022-09-09T02:41:41;4.33;;;2.30;;
6442;SDS011;3254;47.372;8.512;2022-09-09T02:44:11;6.60;;;2.10;;
6442;SDS011;3254;47.372;8.512;2022-09-09T02:49:22;4.10;;;2.53;;
6442;SDS011;3254;47.372;8.512;2022-09-09T02:54:29;3.07;;;2.20;;
6442;SDS011;3254;47.372;8.512;2022-09-09T02:57:01;2.47;;;1.83;;
6442;SDS011;3254;47.372;8.512;2022-09-09T02:59:31;3.40;;;2.27;;
6442;SDS011;3254;47.372;8.512;2022-09-09T03:01:58;7.90;;;2.27;;
6442;SDS011;3254;47.372;8.512;2022-09-09T03:04:24;3.17;;;2.50;;
6442;SDS011;3254;47.372;8.512;2022-09-09T03:06:50;7.40;;;2.00;;
6442;SDS011;3254;47.372;8.512;2022-09-09T03:09:15;5.50;;;2.20;;
6442;SDS011;3254;47.372;8.512;2022-09-09T03:11:41;5.27;;;2.37;;
6442;SDS011;3254;47.372;8.512;2022-09-09T03:14:07;3.23;;;2.40;;
6442;SDS011;3254;47.372;8.512;2022-09-09T03:16:33;4.13;;;2.20;;
6442;SDS011;3254;47.372;8.512;2022-09-09T03:18:59;7.53;;;2.40;;
6442;SDS011;3254;47.372;8.512;2022-09-09T03:21:26;3.50;;;2.30;;
6442;SDS011;3254;47.372;8.512;2022-09-09T03:23:51;10.17;;;2.17;;
6442;SDS011;3254;47.372;8.512;2022-09-09T03:26:17;4.03;;;2.07;;
6442;SDS011;3254;47.372;8.512;2022-09-09T03:28:43;4.43;;;2.40;;
6442;SDS011;3254;47.372;8.512;2022-09-09T03:31:09;2.80;;;2.00;;
6442;SDS011;3254;47.372;8.512;2022-09-09T03:33:38;3.37;;;1.60;;
6442;SDS011;3254;47.372;8.512;2022-09-09T03:36:06;2.40;;;1.50;;
6442;SDS011;3254;47.372;8.512;2022-09-09T03:38:33;2.27;;;1.27;;
6442;SDS011;3254;47.372;8.512;2022-09-09T03:40:59;2.90;;;1.10;;
6442;SDS011;3254;47.372;8.512;2022-09-09T03:43:26;3.00;;;1.10;;
6442;SDS011;3254;47.372;8.512;2022-09-09T03:45:52;3.03;;;1.20;;
6442;SDS011;3254;47.372;8.512;2022-09-09T03:48:21;1.20;;;1.10;;
6442;SDS011;3254;47.372;8.512;2022-09-09T03:50:48;2.97;;;1.23;;
6442;SDS011;3254;47.372;8.512;2022-09-09T03:53:15;2.33;;;1.23;;
6442;SDS011;3254;47.372;8.512;2022-09-09T03:55:45;0.97;;;0.87;;
6442;SDS011;3254;47.372;8.512;2022-09-09T03:58:12;2.00;;;1.00;;
6442;SDS011;3254;47.372;8.512;2022-09-09T04:00:40;2.30;;;1.00;;
6442;SDS011;3254;47.372;8.512;2022-09-09T04:03:10;2.30;;;1.00;;
6442;SDS011;3254;47.372;8.512;2022-09-09T04:05:36;2.33;;;1.57;;
6442;SDS011;3254;47.372;8.512;2022-09-09T04:08:08;6.10;;;1.60;;
6442;SDS011;3254;47.372;8.512;2022-09-09T04:10:34;1.93;;;1.03;;
6442;SDS011;3254;47.372;8.512;2022-09-09T04:13:03;3.67;;;1.00;;
6442;SDS011;3254;47.372;8.512;2022-09-09T04:15:30;1.20;;;0.90;;
6442;SDS011;3254;47.372;8.512;2022-09-09T04:17:56;3.50;;;1.07;;
6442;SDS011;3254;47.372;8.512;2022-09-09T04:20:22;3.10;;;1.50;;
6442;SDS011;3254;47.372;8.512;2022-09-09T04:22:48;1.80;;;1.27;;
6442;SDS011;3254;47.372;8.512;2022-09-09T04:25:14;1.50;;;1.37;;
6442;SDS011;3254;47.372;8.512;2022-09-09T04:27:40;1.73;;;1.63;;
6442;SDS011;3254;47.372;8.512;2022-09-09T04:30:06;1.57;;;1.00;;
6442;SDS011;3254;47.372;8.512;2022-09-09T04:32:35;1.10;;;1.00;;
6442;SDS011;3254;47.372;8.512;2022-09-09T04:35:01;1.57;;;0.90;;
6442;SDS011;3254;47.372;8.512;2022-09-09T04:37:28;1.73;;;0.93;;
6442;SDS011;3254;47.372;8.512;2022-09-09T04:39:53;1.53;;;1.00;;
6442;SDS011;3254;47.372;8.512;2022-09-09T04:42:19;5.20;;;1.47;;
6442;SDS011;3254;47.372;8.512;2022-09-09T04:44:44;3.50;;;1.20;;
6442;SDS011;3254;47.372;8.512;2022-09-09T04:47:10;2.50;;;1.57;;
6442;SDS011;3254;47.372;8.512;2022-09-09T04:49:36;3.63;;;1.70;;
6442;SDS011;3254;47.372;8.512;2022-09-09T04:52:02;2.20;;;1.10;;
6442;SDS011;3254;47.372;8.512;2022-09-09T04:54:28;1.67;;;1.30;;
6442;SDS011;3254;47.372;8.512;2022-09-09T04:56:54;1.43;;;1.33;;
6442;SDS011;3254;47.372;8.512;2022-09-09T04:59:20;2.77;;;1.70;;
6442;SDS011;3254;47.372;8.512;2022-09-09T05:01:46;2.50;;;1.20;;
6442;SDS011;3254;47.372;8.512;2022-09-09T05:04:13;1.67;;;1.30;;
6442;SDS011;3254;47.372;8.512;2022-09-09T05:06:41;4.70;;;1.30;;
6442;SDS011;3254;47.372;8.512;2022-09-09T05:09:07;7.37;;;1.57;;
6442;SDS011;3254;47.372;8.512;2022-09-09T05:11:33;2.50;;;1.40;;
6442;SDS011;3254;47.372;8.512;2022-09-09T05:14:03;1.40;;;1.30;;
6442;SDS011;3254;47.372;8.512;2022-09-09T05:16:29;3.93;;;1.10;;
6442;SDS011;3254;47.372;8.512;2022-09-09T05:18:55;3.00;;;1.83;;
6442;SDS011;3254;47.372;8.512;2022-09-09T05:21:21;4.93;;;1.67;;
6442;SDS011;3254;47.372;8.512;2022-09-09T05:23:48;2.67;;;1.30;;
6442;SDS011;3254;47.372;8.512;2022-09-09T05:26:15;3.30;;;1.20;;
6442;SDS011;3254;47.372;8.512;2022-09-09T05:28:42;1.73;;;1.30;;
6442;SDS011;3254;47.372;8.512;2022-09-09T05:31:08;1.90;;;1.17;;
6442;SDS011;3254;47.372;8.512;2022-09-09T05:33:37;1.57;;;1.20;;
6442;SDS011;3254;47.372;8.512;2022-09-09T05:36:15;3.17;;;2.10;;
6442;SDS011;3254;47.372;8.512;2022-09-09T05:38:43;3.47;;;2.60;;
6442;SDS011;3254;47.372;8.512;2022-09-09T05:41:09;2.20;;;2.10;;
6442;SDS011;3254;47.372;8.512;2022-09-09T05:43:36;2.70;;;2.60;;
6442;SDS011;3254;47.372;8.512;2022-09-09T05:46:07;1.70;;;1.50;;
6442;SDS011;3254;47.372;8.512;2022-09-09T05:48:35;2.57;;;2.33;;
6442;SDS011;3254;47.372;8.512;2022-09-09T05:51:03;1.97;;;1.10;;
6442;SDS011;3254;47.372;8.512;2022-09-09T05:53:31;7.33;;;1.20;;
6442;SDS011;3254;47.372;8.512;2022-09-09T05:56:02;1.53;;;1.40;;
6442;SDS011;3254;47.372;8.512;2022-09-09T05:58:30;2.03;;;0.90;;
6442;SDS011;3254;47.372;8.512;2022-09-09T06:01:07;5.83;;;1.27;;
6442;SDS011;3254;47.372;8.512;2022-09-09T06:03:39;1.00;;;0.93;;
6442;SDS011;3254;47.372;8.512;2022-09-09T06:06:06;1.17;;;1.07;;
6442;SDS011;3254;47.372;8.512;2022-09-09T06:08:34;1.90;;;1.40;;
6442;SDS011;3254;47.372;8.512;2022-09-09T06:11:05;0.90;;;0.80;;
6442;SDS011;3254;47.372;8.512;2022-09-09T06:13:35;4.30;;;1.03;;
6442;SDS011;3254;47.372;8.512;2022-09-09T06:16:15;1.67;;;1.10;;
6442;SDS011;3254;47.372;8.512;2022-09-09T06:18:42;3.00;;;1.20;;
6442;SDS011;3254;47.372;8.512;2022-09-09T06:21:09;2.97;;;1.20;;
6442;SDS011;3254;47.372;8.512;2022-09-09T06:23:40;1.67;;;1.37;;
6442;SDS011;3254;47.372;8.512;2022-09-09T06:26:08;2.70;;;0.70;;
6442;SDS011;3254;47.372;8.512;2022-09-09T06:28:35;1.20;;;1.10;;
6442;SDS011;3254;47.372;8.512;2022-09-09T06:31:02;1.40;;;1.27;;
6442;SDS011;3254;47.372;8.512;2022-09-09T06:33:36;5.37;;;0.93;;
6442;SDS011;3254;47.372;8.512;2022-09-09T06:36:04;2.13;;;0.90;;
6442;SDS011;3254;47.372;8.512;2022-09-09T06:38:30;4.93;;;1.00;;
6442;SDS011;3254;47.372;8.512;2022-09-09T06:40:57;1.83;;;0.90;;
6442;SDS011;3254;47.372;8.512;2022-09-09T06:43:27;4.50;;;1.30;;
6442;SDS011;3254;47.372;8.512;2022-09-09T06:45:56;1.07;;;0.83;;
6442;SDS011;3254;47.372;8.512;2022-09-09T06:48:22;1.57;;;1.20;;
6442;SDS011;3254;47.372;8.512;2022-09-09T06:50:48;9.57;;;1.03;;
6442;SDS011;3254;47.372;8.512;2022-09-09T06:53:18;1.83;;;1.10;;
6442;SDS011;3254;47.372;8.512;2022-09-09T06:55:46;2.03;;;1.00;;
6442;SDS011;3254;47.372;8.512;2022-09-09T06:58:13;1.93;;;1.00;;
6442;SDS011;3254;47.372;8.512;2022-09-09T07:00:38;2.27;;;1.00;;
6442;SDS011;3254;47.372;8.512;2022-09-09T07:03:04;1.20;;;0.80;;
6442;SDS011;3254;47.372;8.512;2022-09-09T07:05:31;2.33;;;1.10;;
6442;SDS011;3254;47.372;8.512;2022-09-09T07:07:56;2.40;;;0.90;;
6442;SDS011;3254;47.372;8.512;2022-09-09T07:10:23;1.40;;;1.00;;
6442;SDS011;3254;47.372;8.512;2022-09-09T07:12:52;1.30;;;0.60;;
6442;SDS011;3254;47.372;8.512;2022-09-09T07:15:18;1.13;;;1.00;;
6442;SDS011;3254;47.372;8.512;2022-09-09T07:17:44;1.60;;;1.10;;
6442;SDS011;3254;47.372;8.512;2022-09-09T07:20:10;0.90;;;0.70;;
6442;SDS011;3254;47.372;8.512;2022-09-09T07:22:36;1.00;;;0.83;;
6442;SDS011;3254;47.372;8.512;2022-09-09T07:25:02;2.13;;;0.70;;
6442;SDS011;3254;47.372;8.512;2022-09-09T07:27:28;1.30;;;1.20;;
6442;SDS011;3254;47.372;8.512;2022-09-09T07:29:55;2.03;;;0.90;;
6442;SDS011;3254;47.372;8.512;2022-09-09T07:32:20;2.13;;;1.10;;
6442;SDS011;3254;47.372;8.512;2022-09-09T07:34:46;1.57;;;0.80;;
6442;SDS011;3254;47.372;8.512;2022-09-09T07:37:12;1.73;;;0.93;;
6442;SDS011;3254;47.372;8.512;2022-09-09T07:39:38;1.63;;;1.00;;
6442;SDS011;3254;47.372;8.512;2022-09-09T07:42:04;2.20;;;1.20;;
6442;SDS011;3254;47.372;8.512;2022-09-09T07:44:30;2.87;;;1.00;;
6442;SDS011;3254;47.372;8.512;2022-09-09T07:46:59;2.17;;;1.07;;
6442;SDS011;3254;47.372;8.512;2022-09-09T07:49:26;1.63;;;0.80;;
6442;SDS011;3254;47.372;8.512;2022-09-09T07:51:52;1.30;;;1.00;;
6442;SDS011;3254;47.372;8.512;2022-09-09T07:54:18;1.93;;;1.10;;
6442;SDS011;3254;47.372;8.512;2022-09-09T07:56:45;2.23;;;1.30;;
6442;SDS011;3254;47.372;8.512;2022-09-09T07:59:12;3.57;;;1.00;;
6442;SDS011;3254;47.372;8.512;2022-09-09T08:01:39;1.77;;;1.00;;
6442;SDS011;3254;47.372;8.512;2022-09-09T08:04:11;1.50;;;1.00;;
6442;SDS011;3254;47.372;8.512;2022-09-09T08:06:40;2.90;;;1.17;;
6442;SDS011;3254;47.372;8.512;2022-09-09T08:09:08;5.03;;;1.37;;
6442;SDS011;3254;47.372;8.512;2022-09-09T08:11:34;1.67;;;1.07;;
6442;SDS011;3254;47.372;8.512;2022-09-09T08:14:01;1.10;;;0.90;;
6442;SDS011;3254;47.372;8.512;2022-09-09T08:16:28;1.77;;;1.33;;
6442;SDS011;3254;47.372;8.512;2022-09-09T08:18:57;7.03;;;1.57;;
6442;SDS011;3254;47.372;8.512;2022-09-09T08:21:25;1.13;;;0.97;;
6442;SDS011;3254;47.372;8.512;2022-09-09T08:23:53;3.93;;;0.90;;
6442;SDS011;3254;47.372;8.512;2022-09-09T08:26:24;8.60;;;4.30;;
6442;SDS011;3254;47.372;8.512;2022-09-09T08:28:53;3.20;;;2.77;;
6442;SDS011;3254;47.372;8.512;2022-09-09T08:31:24;2.17;;;1.17;;
6442;SDS011;3254;47.372;8.512;2022-09-09T08:33:55;3.87;;;1.50;;
6442;SDS011;3254;47.372;8.512;2022-09-09T08:36:25;2.70;;;1.50;;
6442;SDS011;3254;47.372;8.512;2022-09-09T08:38:53;2.23;;;1.33;;
6442;SDS011;3254;47.372;8.512;2022-09-09T08:52:26;4.23;;;1.60;;
6442;SDS011;3254;47.372;8.512;2022-09-09T08:55:03;3.50;;;1.30;;
6442;SDS011;3254;47.372;8.512;2022-09-09T08:57:40;1.70;;;1.10;;
6442;SDS011;3254;47.372;8.512;2022-09-09T09:00:07;6.40;;;1.50;;
6442;SDS011;3254;47.372;8.512;2022-09-09T09:02:51;1.77;;;1.23;;
6442;SDS011;3254;47.372;8.512;2022-09-09T09:08:26;1.87;;;1.17;;
6442;SDS011;3254;47.372;8.512;2022-09-09T09:10:54;3.43;;;1.10;;
6442;SDS011;3254;47.372;8.512;2022-09-09T09:19:03;3.87;;;1.30;;
6442;SDS011;3254;47.372;8.512;2022-09-09T09:21:37;0.90;;;0.60;;
6442;SDS011;3254;47.372;8.512;2022-09-09T09:24:09;4.30;;;2.20;;
6442;SDS011;3254;47.372;8.512;2022-09-09T09:26:57;6.20;;;2.23;;
6442;SDS011;3254;47.372;8.512;2022-09-09T09:29:26;2.30;;;1.10;;
6442;SDS011;3254;47.372;8.512;2022-09-09T09:31:52;3.53;;;1.37;;
6442;SDS011;3254;47.372;8.512;2022-09-09T09:34:20;3.13;;;1.27;;
6442;SDS011;3254;47.372;8.512;2022-09-09T09:36:51;4.67;;;1.20;;
6442;SDS011;3254;47.372;8.512;2022-09-09T09:39:26;2.93;;;1.13;;
6442;SDS011;3254;47.372;8.512;2022-09-09T09:41:54;4.30;;;1.33;;
6442;SDS011;3254;47.372;8.512;2022-09-09T09:46:51;6.20;;;1.43;;
6442;SDS011;3254;47.372;8.512;2022-09-09T09:49:17;1.83;;;1.10;;
6442;SDS011;3254;47.372;8.512;2022-09-09T09:51:43;2.90;;;1.10;;
6442;SDS011;3254;47.372;8.512;2022-09-09T09:56:38;0.90;;;0.60;;
6442;SDS011;3254;47.372;8.512;2022-09-09T09:59:05;5.47;;;1.30;;
6442;SDS011;3254;47.372;8.512;2022-09-09T10:01:38;4.77;;;1.37;;
6442;SDS011;3254;47.372;8.512;2022-09-09T10:04:14;3.47;;;0.90;;
6442;SDS011;3254;47.372;8.512;2022-09-09T10:06:48;1.77;;;1.00;;
6442;SDS011;3254;47.372;8.512;2022-09-09T10:09:30;2.33;;;0.90;;
6442;SDS011;3254;47.372;8.512;2022-09-09T10:12:03;2.10;;;1.07;;
6442;SDS011;3254;47.372;8.512;2022-09-09T10:20:59;3.73;;;1.10;;
6442;SDS011;3254;47.372;8.512;2022-09-09T10:29:24;2.73;;;1.20;;
6442;SDS011;3254;47.372;8.512;2022-09-09T10:37:52;1.60;;;1.10;;
6442;SDS011;3254;47.372;8.512;2022-09-09T10:51:36;2.97;;;1.40;;
6442;SDS011;3254;47.372;8.512;2022-09-09T10:56:49;3.73;;;1.10;;
6442;SDS011;3254;47.372;8.512;2022-09-09T10:59:22;1.77;;;0.97;;
6442;SDS011;3254;47.372;8.512;2022-09-09T11:01:58;1.10;;;0.80;;
6442;SDS011;3254;47.372;8.512;2022-09-09T11:04:40;4.27;;;1.00;;
6442;SDS011;3254;47.372;8.512;2022-09-09T11:07:10;1.90;;;1.40;;
6442;SDS011;3254;47.372;8.512;2022-09-09T11:09:42;1.87;;;1.40;;
6442;SDS011;3254;47.372;8.512;2022-09-09T11:12:15;4.17;;;1.40;;
6442;SDS011;3254;47.372;8.512;2022-09-09T11:14:55;3.90;;;1.37;;
6442;SDS011;3254;47.372;8.512;2022-09-09T11:18:03;3.83;;;1.10;;
6442;SDS011;3254;47.372;8.512;2022-09-09T11:20:23;3.43;;;1.43;;
6442;SDS011;3254;47.372;8.512;2022-09-09T11:33:51;6.17;;;0.90;;
6442;SDS011;3254;47.372;8.512;2022-09-09T11:36:43;2.13;;;1.10;;
6442;SDS011;3254;47.372;8.512;2022-09-09T11:44:39;2.33;;;1.40;;
6442;SDS011;3254;47.372;8.512;2022-09-09T11:47:19;1.00;;;0.60;;
6442;SDS011;3254;47.372;8.512;2022-09-09T11:52:40;2.70;;;1.10;;
6442;SDS011;3254;47.372;8.512;2022-09-09T12:00:49;2.53;;;1.30;;
6442;SDS011;3254;47.372;8.512;2022-09-09T12:06:17;4.73;;;1.67;;
6442;SDS011;3254;47.372;8.512;2022-09-09T12:08:50;1.57;;;1.03;;
6442;SDS011;3254;47.372;8.512;2022-09-09T12:11:29;3.20;;;0.73;;
6442;SDS011;3254;47.372;8.512;2022-09-09T12:13:56;1.70;;;1.00;;
6442;SDS011;3254;47.372;8.512;2022-09-09T12:16:30;3.53;;;1.10;;
6442;SDS011;3254;47.372;8.512;2022-09-09T12:25:06;1.27;;;0.80;;
6442;SDS011;3254;47.372;8.512;2022-09-09T12:27:33;2.60;;;1.10;;
6442;SDS011;3254;47.372;8.512;2022-09-09T12:30:15;2.40;;;0.80;;
6442;SDS011;3254;47.372;8.512;2022-09-09T12:32:42;1.90;;;1.03;;
6442;SDS011;3254;47.372;8.512;2022-09-09T12:43:16;4.93;;;1.30;;
6442;SDS011;3254;47.372;8.512;2022-09-09T12:45:44;2.53;;;1.07;;
6442;SDS011;3254;47.372;8.512;2022-09-09T12:48:10;1.10;;;0.90;;
6442;SDS011;3254;47.372;8.512;2022-09-09T12:50:44;5.50;;;1.20;;
6442;SDS011;3254;47.372;8.512;2022-09-09T12:53:25;6.03;;;0.93;;
6442;SDS011;3254;47.372;8.512;2022-09-09T12:56:03;1.60;;;1.30;;
6442;SDS011;3254;47.372;8.512;2022-09-09T12:58:33;1.63;;;1.40;;
6442;SDS011;3254;47.372;8.512;2022-09-09T13:01:01;2.63;;;0.90;;
6442;SDS011;3254;47.372;8.512;2022-09-09T13:03:32;2.00;;;0.90;;
6442;SDS011;3254;47.372;8.512;2022-09-09T13:06:09;1.30;;;0.97;;
6442;SDS011;3254;47.372;8.512;2022-09-09T13:08:37;1.30;;;0.80;;
6442;SDS011;3254;47.372;8.512;2022-09-09T13:11:04;1.40;;;1.03;;
6442;SDS011;3254;47.372;8.512;2022-09-09T13:13:35;1.10;;;0.60;;
6442;SDS011;3254;47.372;8.512;2022-09-09T13:16:03;4.53;;;0.60;;
6442;SDS011;3254;47.372;8.512;2022-09-09T13:18:33;1.00;;;0.77;;
6442;SDS011;3254;47.372;8.512;2022-09-09T13:21:01;2.40;;;1.00;;
6442;SDS011;3254;47.372;8.512;2022-09-09T13:23:31;2.50;;;0.80;;
6442;SDS011;3254;47.372;8.512;2022-09-09T13:28:31;3.00;;;0.63;;
6442;SDS011;3254;47.372;8.512;2022-09-09T13:31:01;1.40;;;0.80;;
6442;SDS011;3254;47.372;8.512;2022-09-09T13:33:38;2.30;;;1.10;;
6442;SDS011;3254;47.372;8.512;2022-09-09T13:36:06;3.00;;;1.10;;
6442;SDS011;3254;47.372;8.512;2022-09-09T13:38:38;1.27;;;0.90;;
6442;SDS011;3254;47.372;8.512;2022-09-09T13:41:19;1.77;;;0.87;;
6442;SDS011;3254;47.372;8.512;2022-09-09T13:43:48;2.60;;;1.37;;
6442;SDS011;3254;47.372;8.512;2022-09-09T13:49:01;2.93;;;0.90;;
6442;SDS011;3254;47.372;8.512;2022-09-09T13:51:45;1.00;;;0.70;;
6442;SDS011;3254;47.372;8.512;2022-09-09T13:54:15;5.90;;;0.80;;
6442;SDS011;3254;47.372;8.512;2022-09-09T13:56:42;1.23;;;1.00;;
6442;SDS011;3254;47.372;8.512;2022-09-09T13:59:18;2.43;;;0.90;;
6442;SDS011;3254;47.372;8.512;2022-09-09T14:01:49;1.03;;;0.87;;
6442;SDS011;3254;47.372;8.512;2022-09-09T14:04:17;1.47;;;0.67;;
6442;SDS011;3254;47.372;8.512;2022-09-09T14:06:45;0.90;;;0.53;;
6442;SDS011;3254;47.372;8.512;2022-09-09T14:09:12;3.57;;;0.87;;
6442;SDS011;3254;47.372;8.512;2022-09-09T14:11:39;1.23;;;0.60;;
6442;SDS011;3254;47.372;8.512;2022-09-09T14:14:05;0.80;;;0.53;;
6442;SDS011;3254;47.372;8.512;2022-09-09T14:16:31;1.67;;;0.60;;
6442;SDS011;3254;47.372;8.512;2022-09-09T14:18:57;2.10;;;0.80;;
6442;SDS011;3254;47.372;8.512;2022-09-09T14:21:24;3.13;;;0.90;;
6442;SDS011;3254;47.372;8.512;2022-09-09T14:23:51;3.57;;;0.73;;
6442;SDS011;3254;47.372;8.512;2022-09-09T14:26:18;1.00;;;0.60;;
6442;SDS011;3254;47.372;8.512;2022-09-09T14:28:46;1.70;;;0.80;;
6442;SDS011;3254;47.372;8.512;2022-09-09T14:31:12;3.63;;;1.10;;
6442;SDS011;3254;47.372;8.512;2022-09-09T14:33:38;2.33;;;0.90;;
6442;SDS011;3254;47.372;8.512;2022-09-09T14:36:04;4.00;;;0.80;;
6442;SDS011;3254;47.372;8.512;2022-09-09T14:38:32;1.77;;;0.97;;
6442;SDS011;3254;47.372;8.512;2022-09-09T14:40:59;3.90;;;1.00;;
6442;SDS011;3254;47.372;8.512;2022-09-09T14:43:28;1.30;;;0.90;;
6442;SDS011;3254;47.372;8.512;2022-09-09T14:45:55;1.70;;;1.00;;
6442;SDS011;3254;47.372;8.512;2022-09-09T14:48:20;2.20;;;0.87;;
6442;SDS011;3254;47.372;8.512;2022-09-09T14:50:46;3.30;;;0.77;;
6442;SDS011;3254;47.372;8.512;2022-09-09T14:53:12;3.60;;;0.93;;
6442;SDS011;3254;47.372;8.512;2022-09-09T14:55:37;1.10;;;0.70;;
6442;SDS011;3254;47.372;8.512;2022-09-09T14:58:04;4.83;;;0.90;;
6442;SDS011;3254;47.372;8.512;2022-09-09T15:00:31;1.43;;;0.87;;
6442;SDS011;3254;47.372;8.512;2022-09-09T15:02:57;2.10;;;1.10;;
6442;SDS011;3254;47.372;8.512;2022-09-09T15:05:22;3.63;;;1.40;;
6442;SDS011;3254;47.372;8.512;2022-09-09T15:07:49;1.80;;;1.20;;
6442;SDS011;3254;47.372;8.512;2022-09-09T15:10:15;5.10;;;1.47;;
6442;SDS011;3254;47.372;8.512;2022-09-09T15:12:42;0.90;;;0.60;;
6442;SDS011;3254;47.372;8.512;2022-09-09T15:15:08;2.93;;;1.50;;
6442;SDS011;3254;47.372;8.512;2022-09-09T15:17:35;2.00;;;0.90;;
6442;SDS011;3254;47.372;8.512;2022-09-09T15:20:02;3.40;;;1.00;;
6442;SDS011;3254;47.372;8.512;2022-09-09T15:22:28;1.70;;;0.77;;
6442;SDS011;3254;47.372;8.512;2022-09-09T15:24:54;1.90;;;0.70;;
6442;SDS011;3254;47.372;8.512;2022-09-09T15:27:19;2.80;;;1.23;;
6442;SDS011;3254;47.372;8.512;2022-09-09T15:29:45;4.87;;;0.93;;
6442;SDS011;3254;47.372;8.512;2022-09-09T15:32:12;5.03;;;0.60;;
6442;SDS011;3254;47.372;8.512;2022-09-09T15:34:37;1.20;;;0.90;;
6442;SDS011;3254;47.372;8.512;2022-09-09T15:37:03;2.00;;;1.10;;
6442;SDS011;3254;47.372;8.512;2022-09-09T15:39:29;1.33;;;0.90;;
6442;SDS011;3254;47.372;8.512;2022-09-09T15:41:55;3.23;;;1.07;;
6442;SDS011;3254;47.372;8.512;2022-09-09T15:44:21;3.20;;;0.90;;
6442;SDS011;3254;47.372;8.512;2022-09-09T15:46:51;9.17;;;1.37;;
6442;SDS011;3254;47.372;8.512;2022-09-09T15:49:22;2.70;;;0.70;;
6442;SDS011;3254;47.372;8.512;2022-09-09T15:51:52;6.80;;;0.90;;
6442;SDS011;3254;47.372;8.512;2022-09-09T15:54:20;1.90;;;0.70;;
6442;SDS011;3254;47.372;8.512;2022-09-09T15:56:54;3.00;;;1.07;;
6442;SDS011;3254;47.372;8.512;2022-09-09T15:59:22;1.23;;;0.80;;
6442;SDS011;3254;47.372;8.512;2022-09-09T16:01:49;1.23;;;0.70;;
6442;SDS011;3254;47.372;8.512;2022-09-09T16:04:17;1.57;;;0.70;;
6442;SDS011;3254;47.372;8.512;2022-09-09T16:06:53;0.80;;;0.40;;
6442;SDS011;3254;47.372;8.512;2022-09-09T16:09:22;1.03;;;0.87;;
6442;SDS011;3254;47.372;8.512;2022-09-09T16:11:48;1.87;;;1.07;;
6442;SDS011;3254;47.372;8.512;2022-09-09T16:14:14;1.30;;;0.70;;
6442;SDS011;3254;47.372;8.512;2022-09-09T16:16:43;2.03;;;0.90;;
6442;SDS011;3254;47.372;8.512;2022-09-09T16:19:10;1.30;;;0.77;;
6442;SDS011;3254;47.372;8.512;2022-09-09T16:21:41;6.10;;;0.70;;
6442;SDS011;3254;47.372;8.512;2022-09-09T16:24:09;3.73;;;0.70;;
6442;SDS011;3254;47.372;8.512;2022-09-09T16:26:38;3.03;;;1.00;;
6442;SDS011;3254;47.372;8.512;2022-09-09T16:29:05;1.30;;;0.70;;
6442;SDS011;3254;47.372;8.512;2022-09-09T16:31:31;1.83;;;0.80;;
6442;SDS011;3254;47.372;8.512;2022-09-09T16:33:58;1.47;;;0.73;;
6442;SDS011;3254;47.372;8.512;2022-09-09T16:36:25;5.03;;;1.33;;
6442;SDS011;3254;47.372;8.512;2022-09-09T16:38:56;1.57;;;0.70;;
6442;SDS011;3254;47.372;8.512;2022-09-09T16:41:23;1.13;;;0.70;;
6442;SDS011;3254;47.372;8.512;2022-09-09T16:43:54;3.70;;;0.60;;
6442;SDS011;3254;47.372;8.512;2022-09-09T16:46:21;3.20;;;0.63;;
6442;SDS011;3254;47.372;8.512;2022-09-09T16:48:49;1.50;;;0.87;;
6442;SDS011;3254;47.372;8.512;2022-09-09T16:51:16;3.40;;;0.60;;
6442;SDS011;3254;47.372;8.512;2022-09-09T16:53:44;3.80;;;0.97;;
6442;SDS011;3254;47.372;8.512;2022-09-09T16:56:15;2.73;;;1.33;;
6442;SDS011;3254;47.372;8.512;2022-09-09T16:59:04;1.57;;;0.80;;
6442;SDS011;3254;47.372;8.512;2022-09-09T17:01:34;3.17;;;0.90;;
6442;SDS011;3254;47.372;8.512;2022-09-09T17:04:06;4.00;;;1.03;;
6442;SDS011;3254;47.372;8.512;2022-09-09T17:06:34;1.67;;;0.90;;
6442;SDS011;3254;47.372;8.512;2022-09-09T17:09:02;1.10;;;0.80;;
6442;SDS011;3254;47.372;8.512;2022-09-09T17:11:35;2.03;;;0.90;;
6442;SDS011;3254;47.372;8.512;2022-09-09T17:14:02;1.63;;;0.90;;
6442;SDS011;3254;47.372;8.512;2022-09-09T17:16:29;2.57;;;1.00;;
6442;SDS011;3254;47.372;8.512;2022-09-09T17:18:56;1.50;;;0.80;;
6442;SDS011;3254;47.372;8.512;2022-09-09T17:21:24;1.87;;;0.90;;
6442;SDS011;3254;47.372;8.512;2022-09-09T17:23:51;5.17;;;1.37;;
6442;SDS011;3254;47.372;8.512;2022-09-09T17:26:19;2.87;;;0.90;;
6442;SDS011;3254;47.372;8.512;2022-09-09T17:28:46;1.43;;;0.80;;
6442;SDS011;3254;47.372;8.512;2022-09-09T17:31:13;2.30;;;0.90;;
6442;SDS011;3254;47.372;8.512;2022-09-09T17:33:41;2.80;;;1.00;;
6442;SDS011;3254;47.372;8.512;2022-09-09T17:36:12;10.63;;;1.10;;
6442;SDS011;3254;47.372;8.512;2022-09-09T17:38:43;2.80;;;0.97;;
6442;SDS011;3254;47.372;8.512;2022-09-09T17:41:14;3.33;;;1.13;;
6442;SDS011;3254;47.372;8.512;2022-09-09T17:43:50;2.70;;;0.90;;
6442;SDS011;3254;47.372;8.512;2022-09-09T17:46:20;3.63;;;1.13;;
6442;SDS011;3254;47.372;8.512;2022-09-09T17:48:49;2.00;;;0.90;;
6442;SDS011;3254;47.372;8.512;2022-09-09T17:51:19;1.50;;;0.80;;
6442;SDS011;3254;47.372;8.512;2022-09-09T17:53:50;2.03;;;1.03;;